createdAt,value
2018-09-26T00:03:33.739Z,11.86
2018-09-26T00:08:17.271Z,11.60
2018-09-26T00:13:00.139Z,11.78
2018-09-26T00:17:43.142Z,11.56
2018-09-26T00:22:26.030Z,11.94
2018-09-26T00:27:09.178Z,11.89
2018-09-26T00:31:52.103Z,11.67
2018-09-26T00:36:36.554Z,11.57
2018-09-26T00:41:19.961Z,11.55
2018-09-26T00:46:03.043Z,11.64
2018-09-26T00:50:45.968Z,11.49
2018-09-26T00:55:29.041Z,11.72
2018-09-26T01:00:12.176Z,11.60
2018-09-26T01:04:55.319Z,11.58
2018-09-26T01:09:38.593Z,11.68
2018-09-26T01:14:21.476Z,11.38
2018-09-26T01:19:04.430Z,11.38
2018-09-26T01:23:47.318Z,11.52
2018-09-26T01:28:30.235Z,11.40
2018-09-26T01:33:13.150Z,11.36
2018-09-26T01:37:56.242Z,11.69
2018-09-26T01:42:39.085Z,11.55
2018-09-26T01:47:22.013Z,11.56
2018-09-26T01:52:04.840Z,11.33
2018-09-26T01:56:48.789Z,11.57
2018-09-26T02:01:31.683Z,11.27
2018-09-26T02:06:14.539Z,11.29
2018-09-26T02:10:57.457Z,11.19
2018-09-26T02:15:40.373Z,11.02
2018-09-26T02:20:23.255Z,10.95
2018-09-26T02:25:07.166Z,10.97
2018-09-26T02:29:50.055Z,10.98
2018-09-26T02:34:33.131Z,11.10
2018-09-26T02:39:16.011Z,10.87
2018-09-26T02:43:58.874Z,10.90
2018-09-26T02:48:47.214Z,11.07
2018-09-26T02:53:30.130Z,10.87
2018-09-26T02:58:13.203Z,11.09
2018-09-26T03:02:56.098Z,11.01
2018-09-26T03:07:39.233Z,11.17
2018-09-26T03:12:22.093Z,11.01
2018-09-26T03:17:05.009Z,10.80
2018-09-26T03:21:47.882Z,11.03
2018-09-26T03:26:31.008Z,10.79
2018-09-26T03:31:13.853Z,10.85
2018-09-26T03:35:56.739Z,10.96
2018-09-26T03:40:39.651Z,10.77
2018-09-26T03:45:22.696Z,10.74
2018-09-26T03:50:05.590Z,10.71
2018-09-26T03:54:48.508Z,10.64
2018-09-26T03:59:32.790Z,10.46
2018-09-26T04:04:15.812Z,10.74
2018-09-26T04:08:58.666Z,10.62
2018-09-26T04:13:41.545Z,10.63
2018-09-26T04:18:25.694Z,10.68
2018-09-26T04:23:08.514Z,10.55
2018-09-26T04:27:52.264Z,10.71
2018-09-26T04:32:35.305Z,10.42
2018-09-26T04:37:18.371Z,10.68
2018-09-26T04:42:01.234Z,10.75
2018-09-26T04:46:44.356Z,10.72
2018-09-26T04:51:27.215Z,10.84
2018-09-26T04:56:11.155Z,10.79
2018-09-26T05:00:54.019Z,10.74
2018-09-26T05:05:37.955Z,10.87
2018-09-26T05:10:20.794Z,11.08
2018-09-26T05:15:03.891Z,11.25
2018-09-26T05:19:46.892Z,11.17
2018-09-26T05:24:30.035Z,11.27
2018-09-26T05:29:12.902Z,11.56
2018-09-26T05:33:56.727Z,11.45
2018-09-26T05:38:39.602Z,11.61
2018-09-26T05:43:22.477Z,11.80
2018-09-26T05:48:14.423Z,11.85
2018-09-26T05:52:57.285Z,11.54
2018-09-26T05:57:40.821Z,11.74
2018-09-26T06:02:23.727Z,11.93
2018-09-26T06:07:07.740Z,12.30
2018-09-26T06:11:50.591Z,12.13
2018-09-26T06:16:33.727Z,12.24
2018-09-26T06:21:16.723Z,12.26
2018-09-26T06:25:59.756Z,12.46
2018-09-26T06:30:42.648Z,12.24
2018-09-26T06:35:26.534Z,12.28
2018-09-26T06:40:09.391Z,12.74
2018-09-26T06:44:52.266Z,12.95
2018-09-26T06:49:35.124Z,12.55
2018-09-26T06:54:18.084Z,12.31
2018-09-26T06:59:00.934Z,13.00
2018-09-26T07:03:43.791Z,13.01
2018-09-26T07:08:34.627Z,13.26
2018-09-26T07:13:17.498Z,13.35
2018-09-26T07:18:00.412Z,13.06
2018-09-26T07:22:43.259Z,13.67
2018-09-26T07:27:26.151Z,13.85
2018-09-26T07:32:09.018Z,14.07
2018-09-26T07:36:52.037Z,14.17
2018-09-26T07:41:34.872Z,14.16
2018-09-26T07:46:17.956Z,13.98
2018-09-26T07:51:00.829Z,13.90
2018-09-26T07:55:43.753Z,14.48
2018-09-26T08:00:26.590Z,14.68
2018-09-26T08:05:10.525Z,14.35
2018-09-26T08:09:53.364Z,14.42
2018-09-26T08:14:36.284Z,14.68
2018-09-26T08:19:19.199Z,15.11
2018-09-26T08:24:03.276Z,15.40
2018-09-26T08:28:46.392Z,15.74
2018-09-26T08:33:29.352Z,15.97
2018-09-26T08:38:12.255Z,15.49
2018-09-26T08:42:55.126Z,16.31
2018-09-26T08:47:37.996Z,16.72
2018-09-26T08:52:20.892Z,15.85
2018-09-26T08:57:03.752Z,16.13
2018-09-26T09:01:47.841Z,15.86
2018-09-26T09:06:30.825Z,16.58
2018-09-26T09:11:13.742Z,15.97
2018-09-26T09:15:56.806Z,16.04
2018-09-26T09:20:39.675Z,16.73
2018-09-26T09:25:22.992Z,16.45
2018-09-26T09:30:06.113Z,15.80
2018-09-26T09:34:49.122Z,17.27
2018-09-26T09:39:31.976Z,17.44
2018-09-26T09:44:14.909Z,17.50
2018-09-26T09:48:57.772Z,17.51
2018-09-26T09:53:40.635Z,17.73
2018-09-26T09:58:23.476Z,18.13
2018-09-26T10:03:06.521Z,17.51
2018-09-26T10:07:49.287Z,17.10
2018-09-26T10:12:32.136Z,17.86
2018-09-26T10:17:15.064Z,18.79
2018-09-26T10:21:57.931Z,20.58
2018-09-26T10:26:40.926Z,21.73
2018-09-26T10:31:23.842Z,18.21
2018-09-26T10:36:15.400Z,20.55
2018-09-26T10:40:59.439Z,17.97
2018-09-26T10:45:42.441Z,21.24
2018-09-26T10:50:25.336Z,22.60
2018-09-26T10:55:09.414Z,19.43
2018-09-26T10:59:52.298Z,18.71
2018-09-26T11:04:35.159Z,19.19
2018-09-26T11:09:17.989Z,18.14
2018-09-26T11:14:00.945Z,19.93
2018-09-26T11:18:43.804Z,19.25
2018-09-26T11:23:27.720Z,18.17
2018-09-26T11:28:16.148Z,17.67
2018-09-26T11:32:59.711Z,25.73
2018-09-26T11:37:42.585Z,20.92
2018-09-26T11:42:25.441Z,18.70
2018-09-26T11:47:08.580Z,24.96
2018-09-26T11:51:51.670Z,22.44
2018-09-26T11:56:34.548Z,26.88
2018-09-26T12:01:17.427Z,19.16
2018-09-26T12:06:00.338Z,19.20
2018-09-26T12:19:41.743Z,19.95
2018-09-26T12:24:24.807Z,21.74
2018-09-26T12:29:07.613Z,21.89
2018-09-26T12:33:50.453Z,18.94
2018-09-26T12:38:33.325Z,19.96
2018-09-26T12:43:16.708Z,19.05
2018-09-26T12:47:59.612Z,18.67
2018-09-26T12:52:42.551Z,18.25
2018-09-26T12:57:25.409Z,17.80
2018-09-26T13:02:08.241Z,19.18
2018-09-26T13:06:52.184Z,18.74
2018-09-26T13:11:35.039Z,18.37
2018-09-26T13:16:19.726Z,17.86
2018-09-26T13:21:03.220Z,17.67
2018-09-26T13:25:46.330Z,17.65
2018-09-26T13:30:29.203Z,17.81
2018-09-26T13:35:12.830Z,17.92
2018-09-26T13:39:55.684Z,18.17
2018-09-26T13:44:38.582Z,18.26
2018-09-26T13:49:21.471Z,17.84
2018-09-26T13:54:04.569Z,17.83
2018-09-26T13:58:47.425Z,17.46
2018-09-26T14:03:30.403Z,17.39
2018-09-26T14:08:13.300Z,17.35
2018-09-26T14:12:58.233Z,17.16
2018-09-26T14:17:42.216Z,17.08
2018-09-26T14:22:25.323Z,17.38
2018-09-26T14:27:08.018Z,17.46
2018-09-26T14:31:50.895Z,17.11
2018-09-26T14:36:33.903Z,16.95
2018-09-26T14:41:16.842Z,17.08
2018-09-26T14:45:59.962Z,16.99
2018-09-26T14:50:42.820Z,16.88
2018-09-26T14:55:26.056Z,16.89
2018-09-26T15:00:09.252Z,16.95
2018-09-26T15:04:52.244Z,16.69
2018-09-26T15:09:35.103Z,16.72
2018-09-26T15:14:18.034Z,16.67
2018-09-26T15:19:00.943Z,16.70
2018-09-26T15:23:45.364Z,16.76
2018-09-26T15:28:28.259Z,16.48
2018-09-26T15:33:11.496Z,16.57
2018-09-26T15:37:55.220Z,16.74
2018-09-26T15:42:38.104Z,16.61
2018-09-26T15:47:20.981Z,16.67
2018-09-26T15:52:03.896Z,16.56
2018-09-26T15:56:48.667Z,16.18
2018-09-26T16:01:31.540Z,16.53
2018-09-26T16:06:14.601Z,16.56
2018-09-26T16:10:59.133Z,16.49
2018-09-26T16:15:42.157Z,16.30
2018-09-26T16:20:25.106Z,16.41
2018-09-26T16:25:09.266Z,15.91
2018-09-26T16:29:52.160Z,15.81
2018-09-26T16:34:35.798Z,15.83
2018-09-26T16:39:18.762Z,15.91
2018-09-26T16:44:01.887Z,15.78
2018-09-26T16:48:44.796Z,15.52
2018-09-26T16:53:27.746Z,15.75
2018-09-26T16:58:10.702Z,15.60
2018-09-26T17:02:53.813Z,15.52
2018-09-26T17:07:36.728Z,15.38
2018-09-26T17:12:19.830Z,15.47
2018-09-26T17:17:02.837Z,15.48
2018-09-26T17:21:46.814Z,15.41
2018-09-26T17:26:29.724Z,15.67
2018-09-26T17:31:12.669Z,15.43
2018-09-26T17:35:55.850Z,15.37
2018-09-26T17:40:38.765Z,15.22
2018-09-26T17:45:22.874Z,15.33
2018-09-26T17:50:06.627Z,15.31
2018-09-26T17:54:49.590Z,15.36
2018-09-26T17:59:32.604Z,15.16
2018-09-26T18:04:15.706Z,15.57
2018-09-26T18:08:58.651Z,14.90
2018-09-26T18:13:41.724Z,14.77
2018-09-26T18:18:26.654Z,14.92
2018-09-26T18:23:09.743Z,14.82
2018-09-26T18:27:53.118Z,14.62
2018-09-26T18:32:38.085Z,14.46
2018-09-26T18:37:21.133Z,14.27
2018-09-26T18:42:04.264Z,14.37
2018-09-26T18:46:47.285Z,14.35
2018-09-26T18:51:30.702Z,14.28
2018-09-26T18:56:13.715Z,14.32
2018-09-26T19:00:56.687Z,14.22
2018-09-26T19:05:40.126Z,14.00
2018-09-26T19:10:23.092Z,13.97
2018-09-26T19:15:06.103Z,13.66
2018-09-26T19:19:49.026Z,14.01
2018-09-26T19:24:32.421Z,14.04
2018-09-26T19:29:15.304Z,13.65
2018-09-26T19:33:58.380Z,13.81
2018-09-26T19:38:41.317Z,13.73
2018-09-26T19:43:24.456Z,13.62
2018-09-26T19:48:07.547Z,13.65
2018-09-26T19:52:50.611Z,13.51
2018-09-26T19:57:33.553Z,13.45
2018-09-26T20:02:17.019Z,13.25
2018-09-26T20:06:59.989Z,13.39
2018-09-26T20:11:42.900Z,13.05
2018-09-26T20:16:26.188Z,13.05
2018-09-26T20:21:09.517Z,13.07
2018-09-26T20:25:53.614Z,13.18
2018-09-26T20:30:36.859Z,13.23
2018-09-26T20:35:20.981Z,13.26
2018-09-26T20:40:03.976Z,13.00
2018-09-26T20:44:46.959Z,13.15
2018-09-26T20:49:29.869Z,13.22
2018-09-26T20:54:12.961Z,13.12
2018-09-26T20:58:55.865Z,13.25
2018-09-26T21:03:39.814Z,13.23
2018-09-26T21:08:22.695Z,13.06
2018-09-26T21:13:06.163Z,13.03
2018-09-26T21:17:49.175Z,12.97
2018-09-26T21:22:33.066Z,12.85
2018-09-26T21:27:16.344Z,12.94
2018-09-26T21:31:59.400Z,12.92
2018-09-26T21:36:42.317Z,12.86
2018-09-26T21:41:25.755Z,12.83
2018-09-26T21:46:09.156Z,12.83
2018-09-26T21:50:52.047Z,12.80
2018-09-26T21:55:36.151Z,12.76
2018-09-26T22:00:19.036Z,12.39
2018-09-26T22:05:02.106Z,12.56
2018-09-26T22:09:44.951Z,12.32
2018-09-26T22:14:28.056Z,12.19
2018-09-26T22:19:10.904Z,12.33
2018-09-26T22:23:54.440Z,12.13
2018-09-26T22:28:37.268Z,12.13
2018-09-26T22:33:20.145Z,12.08
2018-09-26T22:38:03.006Z,11.90
2018-09-26T22:42:45.896Z,11.73
2018-09-26T22:47:28.811Z,11.89
2018-09-26T22:52:11.828Z,11.72
2018-09-26T22:56:54.967Z,11.92
2018-09-26T23:01:37.939Z,11.65
2018-09-26T23:06:20.870Z,11.80
2018-09-26T23:11:04.620Z,11.73
2018-09-26T23:15:47.479Z,11.72
2018-09-26T23:20:30.331Z,11.96
2018-09-26T23:25:14.409Z,12.03
2018-09-26T23:29:57.239Z,11.82
2018-09-26T23:34:40.151Z,11.93
2018-09-26T23:39:23.019Z,11.88
2018-09-26T23:44:06.650Z,11.96
2018-09-26T23:48:49.775Z,11.90
2018-09-26T23:53:32.860Z,11.88
2018-09-26T23:58:15.711Z,11.75
